Time,TemperatureF,DewpointF,PressureIn,WindDirection,WindDirectionDegrees,WindSpeedMPH,WindSpeedGustMPH,Humidity,HourlyPrecipIn,Conditions,Clouds,dailyrainin,SoftwareType,DateUTC
2013-11-04 06:35:00,49.5,30.1,30.05,West,267,3.0,5.0,47,0.00,,,0.00,Wunderground v.1.15,2013-11-04 14:35:00,
2013-11-04 06:40:00,49.6,30.2,30.05,West,267,3.0,5.0,47,0.00,,,0.00,Wunderground v.1.15,2013-11-04 14:40:00,
2013-11-04 06:45:00,49.9,30.5,30.05,West,267,2.0,2.0,47,0.00,,,0.00,Wunderground v.1.15,2013-11-04 14:45:00,
2013-11-04 06:55:00,50.4,30.4,30.06,West,267,1.0,1.0,46,0.00,,,0.00,Wunderground v.1.15,2013-11-04 14:55:00,
2013-11-04 07:00:00,50.5,30.5,30.06,West,267,1.0,1.0,46,0.00,,,0.00,Wunderground v.1.15,2013-11-04 15:00:00,
2013-11-04 07:10:00,50.4,29.8,30.06,SW,233,1.0,6.0,45,0.00,,,0.00,Wunderground v.1.15,2013-11-04 15:10:00,
2013-11-04 07:15:00,50.5,29.9,30.06,SW,227,2.0,6.0,45,0.00,,,0.00,Wunderground v.1.15,2013-11-04 15:15:00,
2013-11-04 07:20:00,50.8,30.2,30.06,SW,224,1.0,6.0,45,0.00,,,0.00,Wunderground v.1.15,2013-11-04 15:20:00,
2013-11-04 07:30:00,52.2,30.9,30.07,SW,223,4.0,6.0,44,0.00,,,0.00,Wunderground v.1.15,2013-11-04 15:30:00,
2013-11-04 07:35:00,52.7,30.8,30.07,SW,224,4.0,6.0,43,0.00,,,0.00,Wunderground v.1.15,2013-11-04 15:35:00,
2013-11-04 07:45:00,53.5,31.5,30.07,SW,221,3.0,6.0,43,0.00,,,0.00,Wunderground v.1.15,2013-11-04 15:45:00,
2013-11-04 07:50:00,53.5,32.1,30.08,SW,220,3.0,9.0,44,0.00,,,0.00,Wunderground v.1.15,2013-11-04 15:50:00,
2013-11-04 08:00:00,53.5,32.1,30.08,SSW,202,2.0,9.0,44,0.00,,,0.00,Wunderground v.1.15,2013-11-04 16:00:00,
2013-11-04 08:05:00,53.5,32.1,30.08,SSW,201,2.0,9.0,44,0.00,,,0.00,Wunderground v.1.15,2013-11-04 16:05:00,
2013-11-04 08:15:00,53.7,32.3,30.09,SSW,201,1.0,9.0,44,0.00,,,0.00,Wunderground v.1.15,2013-11-04 16:15:00,
2013-11-04 08:20:00,53.7,32.3,30.09,SSW,199,2.0,7.0,44,0.00,,,0.00,Wunderground v.1.15,2013-11-04 16:20:00,
2013-11-04 08:30:00,53.9,33.0,30.09,South,183,4.0,4.0,45,0.00,,,0.00,Wunderground v.1.15,2013-11-04 16:30:00,
2013-11-04 08:35:00,54.1,33.2,30.09,South,176,4.0,7.0,45,0.00,,,0.00,Wunderground v.1.15,2013-11-04 16:35:00,
2013-11-04 08:45:00,54.6,34.2,30.09,South,175,4.0,7.0,46,0.00,,,0.00,Wunderground v.1.15,2013-11-04 16:45:00,
2013-11-04 08:50:00,55.0,34.6,30.09,South,175,3.0,3.0,46,0.00,,,0.00,Wunderground v.1.15,2013-11-04 16:50:00,
2013-11-04 09:00:00,55.6,34.6,30.09,SSW,210,1.0,1.0,45,0.00,,,0.00,Wunderground v.1.15,2013-11-04 17:00:00,
2013-11-04 09:05:00,55.9,34.8,30.09,SSW,210,1.0,9.0,45,0.00,,,0.00,Wunderground v.1.15,2013-11-04 17:05:00,
2013-11-04 09:10:00,56.1,35.0,30.08,SSW,198,1.0,9.0,45,0.00,,,0.00,Wunderground v.1.15,2013-11-04 17:10:00,
2013-11-04 09:20:00,56.1,35.0,30.08,South,191,3.0,10.0,45,0.00,,,0.00,Wunderground v.1.15,2013-11-04 17:20:00,
2013-11-04 09:30:00,56.7,35.6,30.08,SSE,160,3.0,3.0,45,0.00,,,0.00,Wunderground v.1.15,2013-11-04 17:30:00,
2013-11-04 09:35:00,57.0,35.3,30.09,SSE,160,4.0,4.0,44,0.00,,,0.00,Wunderground v.1.15,2013-11-04 17:35:00,
2013-11-04 09:45:00,57.0,35.3,30.09,SSE,160,2.0,10.0,44,0.00,,,0.00,Wunderground v.1.15,2013-11-04 17:45:00,
2013-11-04 09:50:00,57.0,35.3,30.09,SSE,157,2.0,10.0,44,0.00,,,0.00,Wunderground v.1.15,2013-11-04 17:50:00,
2013-11-04 10:00:00,56.1,35.0,30.09,SSE,157,3.0,3.0,45,0.00,,,0.00,Wunderground v.1.15,2013-11-04 18:00:00,
2013-11-04 10:10:00,57.2,34.9,30.09,SSE,157,2.0,10.0,43,0.00,,,0.00,Wunderground v.1.15,2013-11-04 18:10:00,
2013-11-04 10:15:00,57.1,35.4,30.09,SSE,157,3.0,10.0,44,0.00,,,0.00,Wunderground v.1.15,2013-11-04 18:15:00,
2013-11-04 10:20:00,57.4,35.1,30.09,SSE,165,5.0,8.0,43,0.00,,,0.00,Wunderground v.1.15,2013-11-04 18:20:00,
2013-11-04 10:30:00,57.7,36.5,30.09,South,172,5.0,5.0,45,0.00,,,0.00,Wunderground v.1.15,2013-11-04 18:30:00,
2013-11-04 17:20:00,55.5,22.0,30.13,SE,135,4.0,12.0,27,0.00,,,0.00,Wunderground v.1.15,2013-11-05 01:20:00,
2013-11-04 17:25:00,55.4,21.9,30.13,ESE,119,4.0,12.0,27,0.00,,,0.00,Wunderground v.1.15,2013-11-05 01:25:00,
2013-11-04 17:30:00,55.1,21.7,30.14,ESE,123,4.0,4.0,27,0.00,,,0.00,Wunderground v.1.15,2013-11-05 01:30:00,
2013-11-04 17:35:00,54.8,21.4,30.14,SE,127,3.0,12.0,27,0.00,,,0.00,Wunderground v.1.15,2013-11-05 01:35:00,
2013-11-04 17:45:00,54.8,20.5,30.15,ESE,119,4.0,12.0,26,0.00,,,0.00,Wunderground v.1.15,2013-11-05 01:45:00,
2013-11-04 17:50:00,54.4,20.2,30.15,ESE,108,3.0,3.0,26,0.00,,,0.00,Wunderground v.1.15,2013-11-05 01:50:00,
2013-11-04 18:00:00,54.0,19.8,30.16,ESE,119,3.0,3.0,26,0.00,,,0.00,Wunderground v.1.15,2013-11-05 02:00:00,
2013-11-04 18:05:00,53.6,19.5,30.16,ESE,119,2.0,10.0,26,0.00,,,0.00,Wunderground v.1.15,2013-11-05 02:05:00,
2013-11-04 18:15:00,53.1,19.1,30.16,ESE,119,1.0,10.0,26,0.00,,,0.00,Wunderground v.1.15,2013-11-05 02:15:00,
2013-11-04 18:20:00,52.9,18.9,30.17,ESE,119,0.0,8.0,26,0.00,,,0.00,Wunderground v.1.15,2013-11-05 02:20:00,
2013-11-04 18:30:00,52.7,18.7,30.17,ESE,120,1.0,8.0,26,0.00,,,0.00,Wunderground v.1.15,2013-11-05 02:30:00,
2013-11-04 18:40:00,52.9,18.9,30.17,ESE,108,3.0,3.0,26,0.00,,,0.00,Wunderground v.1.15,2013-11-05 02:40:00,
2013-11-04 18:45:00,52.9,18.9,30.17,ESE,121,4.0,4.0,26,0.00,,,0.00,Wunderground v.1.15,2013-11-05 02:45:00,
2013-11-04 18:50:00,52.8,18.8,30.17,East,101,4.0,4.0,26,0.00,,,0.00,Wunderground v.1.15,2013-11-05 02:50:00,
2013-11-04 19:00:00,52.8,18.8,30.17,East,98,3.0,3.0,26,0.00,,,0.00,Wunderground v.1.15,2013-11-05 03:00:00,
2013-11-04 19:10:00,52.7,18.7,30.18,SE,125,3.0,3.0,26,0.00,,,0.00,Wunderground v.1.15,2013-11-05 03:10:00,
2013-11-04 19:15:00,52.6,18.6,30.18,SE,126,2.0,9.0,26,0.00,,,0.00,Wunderground v.1.15,2013-11-05 03:15:00,
2013-11-04 19:20:00,52.4,18.5,30.18,SE,126,1.0,8.0,26,0.00,,,0.00,Wunderground v.1.15,2013-11-05 03:20:00,
2013-11-04 19:30:00,52.1,18.2,30.18,SE,129,3.0,8.0,26,0.00,,,0.00,Wunderground v.1.15,2013-11-05 03:30:00,
2013-11-04 19:35:00,51.9,18.9,30.19,ESE,120,3.0,8.0,27,0.00,,,0.00,Wunderground v.1.15,2013-11-05 03:35:00,
2013-11-04 19:45:00,51.9,18.9,30.19,SE,132,3.0,6.0,27,0.00,,,0.00,Wunderground v.1.15,2013-11-05 03:45:00,
2013-11-04 19:50:00,51.9,18.9,30.19,ESE,116,3.0,3.0,27,0.00,,,0.00,Wunderground v.1.15,2013-11-05 03:50:00,
2013-11-04 19:55:00,51.9,18.9,30.19,East,84,4.0,7.0,27,0.00,,,0.00,Wunderground v.1.15,2013-11-05 03:55:00,
2013-11-04 20:00:00,52.0,19.9,30.19,East,99,4.0,8.0,28,0.00,,,0.00,Wunderground v.1.15,2013-11-05 04:00:00,
2013-11-04 20:10:00,51.9,19.8,30.20,ESE,114,3.0,3.0,28,0.00,,,0.00,Wunderground v.1.15,2013-11-05 04:10:00,
2013-11-04 20:15:00,51.9,20.6,30.20,ESE,106,4.0,4.0,29,0.00,,,0.00,Wunderground v.1.15,2013-11-05 04:15:00,
2013-11-04 20:20:00,52.0,21.5,30.20,ESE,102,4.0,10.0,30,0.00,,,0.00,Wunderground v.1.15,2013-11-05 04:20:00,
2013-11-04 20:30:00,51.8,22.1,30.20,SE,125,3.0,3.0,31,0.00,,,0.00,Wunderground v.1.15,2013-11-05 04:30:00,
2013-11-04 20:35:00,51.8,22.1,30.21,ESE,105,3.0,5.0,31,0.00,,,0.00,Wunderground v.1.15,2013-11-05 04:35:00,
2013-11-04 20:40:00,51.9,22.2,30.21,SE,128,3.0,10.0,31,0.00,,,0.00,Wunderground v.1.15,2013-11-05 04:40:00,
2013-11-04 20:50:00,51.5,22.6,30.21,ESE,108,4.0,4.0,32,0.00,,,0.00,Wunderground v.1.15,2013-11-05 04:50:00,
2013-11-04 21:00:00,51.3,23.1,30.21,ESE,121,4.0,10.0,33,0.00,,,0.00,Wunderground v.1.15,2013-11-05 05:00:00,
2013-11-04 21:05:00,51.2,23.0,30.22,ESE,121,4.0,10.0,33,0.00,,,0.00,Wunderground v.1.15,2013-11-05 05:05:00,
2013-11-04 21:10:00,51.1,23.0,30.22,SE,143,4.0,4.0,33,0.00,,,0.00,Wunderground v.1.15,2013-11-05 05:10:00,
2013-11-04 21:15:00,51.1,23.7,30.22,ESE,121,3.0,10.0,34,0.00,,,0.00,Wunderground v.1.15,2013-11-05 05:15:00,
2013-11-04 21:20:00,51.1,23.7,30.23,SE,129,3.0,3.0,34,0.00,,,0.00,Wunderground v.1.15,2013-11-05 05:20:00,
2013-11-04 21:30:00,50.7,24.0,30.23,SE,139,2.0,9.0,35,0.00,,,0.00,Wunderground v.1.15,2013-11-05 05:30:00,
2013-11-04 21:35:00,50.3,23.7,30.23,SE,139,1.0,9.0,35,0.00,,,0.00,Wunderground v.1.15,2013-11-05 05:35:00,
2013-11-04 21:45:00,50.0,24.1,30.24,SSE,159,3.0,3.0,36,0.00,,,0.00,Wunderground v.1.15,2013-11-05 05:45:00,
2013-11-04 21:50:00,49.9,24.6,30.24,SE,146,3.0,8.0,37,0.00,,,0.00,Wunderground v.1.15,2013-11-05 05:50:00,
2013-11-04 21:55:00,50.0,24.7,30.24,ESE,122,3.0,8.0,37,0.00,,,0.00,Wunderground v.1.15,2013-11-05 05:55:00,
2013-11-04 22:05:00,50.5,25.2,30.24,SE,136,4.0,8.0,37,0.00,,,0.00,Wunderground v.1.15,2013-11-05 06:05:00,
2013-11-04 22:15:00,50.4,25.1,30.24,SE,140,5.0,6.0,37,0.00,,,0.00,Wunderground v.1.15,2013-11-05 06:15:00,
2013-11-04 22:20:00,50.3,25.0,30.24,SE,133,4.0,4.0,37,0.00,,,0.00,Wunderground v.1.15,2013-11-05 06:20:00,
2013-11-04 22:30:00,49.9,24.6,30.25,SE,142,3.0,3.0,37,0.00,,,0.00,Wunderground v.1.15,2013-11-05 06:30:00,
2013-11-04 22:35:00,49.6,25.0,30.25,SE,142,2.0,9.0,38,0.00,,,0.00,Wunderground v.1.15,2013-11-05 06:35:00,
2013-11-04 22:45:00,49.4,24.8,30.25,SE,143,1.0,2.0,38,0.00,,,0.00,Wunderground v.1.15,2013-11-05 06:45:00,
2013-11-04 22:50:00,49.4,24.8,30.25,SE,143,0.0,10.0,38,0.00,,,0.00,Wunderground v.1.15,2013-11-05 06:50:00,
2013-11-04 22:55:00,49.4,24.8,30.25,SE,144,1.0,10.0,38,0.00,,,0.00,Wunderground v.1.15,2013-11-05 06:55:00,
2013-11-04 23:05:00,49.6,25.0,30.25,SSE,154,1.0,10.0,38,0.00,,,0.00,Wunderground v.1.15,2013-11-05 07:05:00,
2013-11-04 23:10:00,49.8,24.5,30.25,SSE,154,1.0,1.0,37,0.00,,,0.00,Wunderground v.1.15,2013-11-05 07:10:00,
2013-11-04 23:20:00,49.7,24.5,30.25,SSE,154,1.0,5.0,37,0.00,,,0.00,Wunderground v.1.15,2013-11-05 07:20:00,
2013-11-04 23:30:00,49.5,24.3,30.26,SSE,155,2.0,5.0,37,0.00,,,0.00,Wunderground v.1.15,2013-11-05 07:30:00,
2013-11-04 23:35:00,49.4,24.2,30.26,SSE,155,2.0,5.0,37,0.00,,,0.00,Wunderground v.1.15,2013-11-05 07:35:00,
2013-11-04 23:45:00,49.0,23.8,30.26,SSE,160,1.0,5.0,37,0.00,,,0.00,Wunderground v.1.15,2013-11-05 07:45:00,
2013-11-04 23:50:00,48.9,23.7,30.27,SSE,160,1.0,5.0,37,0.00,,,0.00,Wunderground v.1.15,2013-11-05 07:50:00,
2013-11-04 23:55:00,48.8,23.6,30.26,SSE,160,2.0,5.0,37,0.00,,,0.00,Wunderground v.1.15,2013-11-05 07:55:00,